sensor_id;sensor_type;location;lat;lon;timestamp;P1;durP1;ratioP1;P2;durP2;ratioP2
35444;SDS011;21562;49.476;6.086;2022-07-30T00:00:04;4.32;;;2.53;;
35444;SDS011;21562;49.476;6.086;2022-07-30T00:02:32;9.05;;;3.20;;
35444;SDS011;21562;49.476;6.086;2022-07-30T00:04:57;6.65;;;2.60;;
35444;SDS011;21562;49.476;6.086;2022-07-30T00:07:23;5.60;;;2.38;;
35444;SDS011;21562;49.476;6.086;2022-07-30T00:09:49;3.28;;;2.35;;
35444;SDS011;21562;49.476;6.086;2022-07-30T00:12:15;4.68;;;2.80;;
35444;SDS011;21562;49.476;6.086;2022-07-30T00:14:40;4.10;;;2.83;;
35444;SDS011;21562;49.476;6.086;2022-07-30T00:17:06;10.07;;;2.72;;
35444;SDS011;21562;49.476;6.086;2022-07-30T00:19:32;5.55;;;2.88;;
35444;SDS011;21562;49.476;6.086;2022-07-30T00:21:58;5.10;;;2.38;;
35444;SDS011;21562;49.476;6.086;2022-07-30T00:24:23;8.77;;;3.63;;
35444;SDS011;21562;49.476;6.086;2022-07-30T00:26:49;3.97;;;2.53;;
35444;SDS011;21562;49.476;6.086;2022-07-30T00:29:15;6.15;;;2.75;;
35444;SDS011;21562;49.476;6.086;2022-07-30T00:31:40;4.22;;;3.20;;
35444;SDS011;21562;49.476;6.086;2022-07-30T00:34:06;7.13;;;3.13;;
35444;SDS011;21562;49.476;6.086;2022-07-30T00:36:32;5.88;;;2.70;;
35444;SDS011;21562;49.476;6.086;2022-07-30T00:38:57;3.38;;;2.53;;
35444;SDS011;21562;49.476;6.086;2022-07-30T00:41:23;5.70;;;2.70;;
35444;SDS011;21562;49.476;6.086;2022-07-30T00:43:50;4.88;;;2.97;;
35444;SDS011;21562;49.476;6.086;2022-07-30T00:46:16;6.05;;;2.70;;
35444;SDS011;21562;49.476;6.086;2022-07-30T00:48:42;5.68;;;2.70;;
35444;SDS011;21562;49.476;6.086;2022-07-30T00:51:08;8.70;;;3.13;;
35444;SDS011;21562;49.476;6.086;2022-07-30T00:53:34;4.25;;;2.50;;
35444;SDS011;21562;49.476;6.086;2022-07-30T00:56:00;6.40;;;2.97;;
35444;SDS011;21562;49.476;6.086;2022-07-30T00:58:26;6.18;;;2.47;;
35444;SDS011;21562;49.476;6.086;2022-07-30T01:00:51;5.15;;;2.53;;
35444;SDS011;21562;49.476;6.086;2022-07-30T01:03:17;3.67;;;2.50;;
35444;SDS011;21562;49.476;6.086;2022-07-30T01:05:43;5.47;;;2.90;;
35444;SDS011;21562;49.476;6.086;2022-07-30T01:08:09;5.28;;;2.53;;
35444;SDS011;21562;49.476;6.086;2022-07-30T01:10:35;5.82;;;2.95;;
35444;SDS011;21562;49.476;6.086;2022-07-30T01:13:00;5.65;;;2.80;;
35444;SDS011;21562;49.476;6.086;2022-07-30T01:15:26;5.20;;;2.55;;
35444;SDS011;21562;49.476;6.086;2022-07-30T01:17:52;6.32;;;3.10;;
35444;SDS011;21562;49.476;6.086;2022-07-30T01:20:25;5.82;;;2.75;;
35444;SDS011;21562;49.476;6.086;2022-07-30T01:22:57;6.93;;;3.58;;
35444;SDS011;21562;49.476;6.086;2022-07-30T01:26:02;4.72;;;2.70;;
35444;SDS011;21562;49.476;6.086;2022-07-30T01:28:34;5.40;;;2.50;;
35444;SDS011;21562;49.476;6.086;2022-07-30T01:31:02;4.82;;;3.35;;
35444;SDS011;21562;49.476;6.086;2022-07-30T01:33:28;5.38;;;2.45;;
35444;SDS011;21562;49.476;6.086;2022-07-30T01:35:56;4.32;;;3.00;;
35444;SDS011;21562;49.476;6.086;2022-07-30T01:38:24;5.20;;;2.90;;
35444;SDS011;21562;49.476;6.086;2022-07-30T01:40:51;7.38;;;2.55;;
35444;SDS011;21562;49.476;6.086;2022-07-30T01:43:19;3.50;;;2.42;;
35444;SDS011;21562;49.476;6.086;2022-07-30T01:45:46;7.63;;;2.80;;
35444;SDS011;21562;49.476;6.086;2022-07-30T01:48:13;4.38;;;2.88;;
35444;SDS011;21562;49.476;6.086;2022-07-30T01:50:43;4.60;;;2.80;;
35444;SDS011;21562;49.476;6.086;2022-07-30T01:53:18;9.65;;;3.20;;
35444;SDS011;21562;49.476;6.086;2022-07-30T01:55:53;6.18;;;2.55;;
35444;SDS011;21562;49.476;6.086;2022-07-30T01:58:20;6.63;;;2.95;;
35444;SDS011;21562;49.476;6.086;2022-07-30T02:00:50;8.43;;;2.85;;
35444;SDS011;21562;49.476;6.086;2022-07-30T02:03:18;10.48;;;2.92;;
35444;SDS011;21562;49.476;6.086;2022-07-30T02:05:49;8.25;;;2.97;;
35444;SDS011;21562;49.476;6.086;2022-07-30T02:10:54;6.47;;;3.75;;
35444;SDS011;21562;49.476;6.086;2022-07-30T02:13:26;4.72;;;2.90;;
35444;SDS011;21562;49.476;6.086;2022-07-30T02:15:55;3.35;;;2.50;;
35444;SDS011;21562;49.476;6.086;2022-07-30T02:21:00;7.45;;;2.72;;
35444;SDS011;21562;49.476;6.086;2022-07-30T02:23:30;3.92;;;2.70;;
35444;SDS011;21562;49.476;6.086;2022-07-30T02:26:00;6.70;;;3.03;;
35444;SDS011;21562;49.476;6.086;2022-07-30T02:28:29;10.40;;;2.92;;
35444;SDS011;21562;49.476;6.086;2022-07-30T02:30:59;4.57;;;2.85;;
35444;SDS011;21562;49.476;6.086;2022-07-30T02:33:26;7.65;;;2.83;;
35444;SDS011;21562;49.476;6.086;2022-07-30T02:35:55;5.93;;;3.05;;
35444;SDS011;21562;49.476;6.086;2022-07-30T02:38:23;4.95;;;2.92;;
35444;SDS011;21562;49.476;6.086;2022-07-30T02:40:52;4.60;;;2.83;;
35444;SDS011;21562;49.476;6.086;2022-07-30T02:43:19;8.90;;;2.92;;
35444;SDS011;21562;49.476;6.086;2022-07-30T02:45:49;6.53;;;2.80;;
35444;SDS011;21562;49.476;6.086;2022-07-30T02:48:14;5.18;;;2.88;;
35444;SDS011;21562;49.476;6.086;2022-07-30T02:50:42;10.20;;;3.40;;
35444;SDS011;21562;49.476;6.086;2022-07-30T02:53:10;5.28;;;3.08;;
35444;SDS011;21562;49.476;6.086;2022-07-30T02:55:38;7.82;;;3.13;;
35444;SDS011;21562;49.476;6.086;2022-07-30T02:58:06;4.93;;;3.10;;
35444;SDS011;21562;49.476;6.086;2022-07-30T03:00:34;5.68;;;2.95;;
35444;SDS011;21562;49.476;6.086;2022-07-30T03:03:03;7.00;;;2.80;;
35444;SDS011;21562;49.476;6.086;2022-07-30T03:05:31;5.45;;;3.03;;
35444;SDS011;21562;49.476;6.086;2022-07-30T03:07:58;3.45;;;3.05;;
35444;SDS011;21562;49.476;6.086;2022-07-30T03:10:25;7.05;;;3.15;;
35444;SDS011;21562;49.476;6.086;2022-07-30T03:12:51;4.15;;;3.28;;
35444;SDS011;21562;49.476;6.086;2022-07-30T03:15:20;5.18;;;2.85;;
35444;SDS011;21562;49.476;6.086;2022-07-30T03:17:48;6.88;;;3.15;;
35444;SDS011;21562;49.476;6.086;2022-07-30T03:20:16;4.20;;;3.33;;
35444;SDS011;21562;49.476;6.086;2022-07-30T03:22:45;6.53;;;3.05;;
35444;SDS011;21562;49.476;6.086;2022-07-30T03:25:15;5.05;;;3.10;;
35444;SDS011;21562;49.476;6.086;2022-07-30T03:27:43;9.27;;;3.13;;
35444;SDS011;21562;49.476;6.086;2022-07-30T03:30:10;7.03;;;3.10;;
35444;SDS011;21562;49.476;6.086;2022-07-30T03:32:37;3.85;;;2.70;;
35444;SDS011;21562;49.476;6.086;2022-07-30T03:35:03;6.03;;;2.97;;
35444;SDS011;21562;49.476;6.086;2022-07-30T03:37:32;6.88;;;3.85;;
35444;SDS011;21562;49.476;6.086;2022-07-30T03:40:06;5.45;;;2.55;;
35444;SDS011;21562;49.476;6.086;2022-07-30T03:43:34;4.10;;;2.67;;
35444;SDS011;21562;49.476;6.086;2022-07-30T03:46:39;6.07;;;3.17;;
35444;SDS011;21562;49.476;6.086;2022-07-30T03:49:53;7.23;;;3.00;;
35444;SDS011;21562;49.476;6.086;2022-07-30T04:09:16;4.22;;;3.08;;
35444;SDS011;21562;49.476;6.086;2022-07-30T04:15:04;9.05;;;2.72;;
35444;SDS011;21562;49.476;6.086;2022-07-30T04:17:48;4.60;;;2.75;;
35444;SDS011;21562;49.476;6.086;2022-07-30T04:21:24;4.07;;;3.00;;
35444;SDS011;21562;49.476;6.086;2022-07-30T04:24:15;8.75;;;3.33;;
35444;SDS011;21562;49.476;6.086;2022-07-30T04:30:15;6.88;;;3.50;;
35444;SDS011;21562;49.476;6.086;2022-07-30T04:32:58;4.53;;;3.28;;
35444;SDS011;21562;49.476;6.086;2022-07-30T04:35:28;7.03;;;3.40;;
35444;SDS011;21562;49.476;6.086;2022-07-30T04:37:55;4.55;;;2.72;;
35444;SDS011;21562;49.476;6.086;2022-07-30T04:40:21;7.32;;;2.33;;
35444;SDS011;21562;49.476;6.086;2022-07-30T04:42:47;4.88;;;2.60;;
35444;SDS011;21562;49.476;6.086;2022-07-30T04:45:13;5.75;;;2.45;;
35444;SDS011;21562;49.476;6.086;2022-07-30T04:47:38;3.08;;;1.92;;
35444;SDS011;21562;49.476;6.086;2022-07-30T04:50:05;7.18;;;2.15;;
35444;SDS011;21562;49.476;6.086;2022-07-30T04:52:33;3.22;;;1.95;;
35444;SDS011;21562;49.476;6.086;2022-07-30T04:55:03;6.03;;;2.60;;
35444;SDS011;21562;49.476;6.086;2022-07-30T04:57:32;2.60;;;1.77;;
35444;SDS011;21562;49.476;6.086;2022-07-30T05:00:01;2.97;;;1.75;;
35444;SDS011;21562;49.476;6.086;2022-07-30T05:02:29;3.78;;;2.00;;
35444;SDS011;21562;49.476;6.086;2022-07-30T05:04:56;3.40;;;2.15;;
35444;SDS011;21562;49.476;6.086;2022-07-30T05:07:24;2.20;;;2.00;;
35444;SDS011;21562;49.476;6.086;2022-07-30T05:09:51;3.97;;;2.17;;
35444;SDS011;21562;49.476;6.086;2022-07-30T05:12:16;2.80;;;1.60;;
35444;SDS011;21562;49.476;6.086;2022-07-30T05:14:42;5.40;;;2.28;;
35444;SDS011;21562;49.476;6.086;2022-07-30T05:17:07;3.50;;;2.22;;
35444;SDS011;21562;49.476;6.086;2022-07-30T05:19:33;2.92;;;1.90;;
35444;SDS011;21562;49.476;6.086;2022-07-30T05:21:59;3.60;;;1.67;;
35444;SDS011;21562;49.476;6.086;2022-07-30T05:24:25;4.60;;;2.75;;
35444;SDS011;21562;49.476;6.086;2022-07-30T05:26:50;2.97;;;2.08;;
35444;SDS011;21562;49.476;6.086;2022-07-30T05:29:16;4.20;;;2.75;;
35444;SDS011;21562;49.476;6.086;2022-07-30T05:31:42;4.30;;;2.15;;
35444;SDS011;21562;49.476;6.086;2022-07-30T05:34:07;8.55;;;2.85;;
35444;SDS011;21562;49.476;6.086;2022-07-30T05:36:33;3.70;;;2.08;;
35444;SDS011;21562;49.476;6.086;2022-07-30T05:38:59;4.85;;;2.17;;
35444;SDS011;21562;49.476;6.086;2022-07-30T05:41:25;7.95;;;2.50;;
35444;SDS011;21562;49.476;6.086;2022-07-30T05:43:53;3.25;;;2.40;;
35444;SDS011;21562;49.476;6.086;2022-07-30T05:46:19;5.43;;;2.08;;
35444;SDS011;21562;49.476;6.086;2022-07-30T05:48:45;2.83;;;1.92;;
35444;SDS011;21562;49.476;6.086;2022-07-30T05:51:11;3.45;;;1.90;;
35444;SDS011;21562;49.476;6.086;2022-07-30T05:53:36;3.15;;;2.05;;
35444;SDS011;21562;49.476;6.086;2022-07-30T05:56:02;2.60;;;2.00;;
35444;SDS011;21562;49.476;6.086;2022-07-30T05:58:28;5.90;;;2.50;;
35444;SDS011;21562;49.476;6.086;2022-07-30T06:00:53;7.32;;;2.35;;
35444;SDS011;21562;49.476;6.086;2022-07-30T06:03:19;6.45;;;2.30;;
35444;SDS011;21562;49.476;6.086;2022-07-30T06:05:45;4.97;;;2.30;;
35444;SDS011;21562;49.476;6.086;2022-07-30T06:08:10;3.53;;;2.30;;
35444;SDS011;21562;49.476;6.086;2022-07-30T06:10:36;5.47;;;2.00;;
35444;SDS011;21562;49.476;6.086;2022-07-30T06:13:02;6.55;;;2.15;;
35444;SDS011;21562;49.476;6.086;2022-07-30T06:15:28;5.00;;;2.22;;
35444;SDS011;21562;49.476;6.086;2022-07-30T06:17:53;7.00;;;2.92;;
35444;SDS011;21562;49.476;6.086;2022-07-30T06:20:19;4.70;;;2.30;;
35444;SDS011;21562;49.476;6.086;2022-07-30T06:22:45;6.25;;;2.17;;
35444;SDS011;21562;49.476;6.086;2022-07-30T06:25:11;4.25;;;2.38;;
35444;SDS011;21562;49.476;6.086;2022-07-30T06:27:37;5.43;;;2.28;;
35444;SDS011;21562;49.476;6.086;2022-07-30T06:30:04;8.18;;;2.67;;
35444;SDS011;21562;49.476;6.086;2022-07-30T06:32:31;7.45;;;3.20;;
35444;SDS011;21562;49.476;6.086;2022-07-30T06:34:57;4.35;;;2.30;;
35444;SDS011;21562;49.476;6.086;2022-07-30T06:37:23;3.78;;;2.70;;
35444;SDS011;21562;49.476;6.086;2022-07-30T06:39:49;5.25;;;2.78;;
35444;SDS011;21562;49.476;6.086;2022-07-30T06:42:15;4.80;;;2.53;;
35444;SDS011;21562;49.476;6.086;2022-07-30T06:44:41;5.35;;;2.67;;
35444;SDS011;21562;49.476;6.086;2022-07-30T06:47:06;5.40;;;2.40;;
35444;SDS011;21562;49.476;6.086;2022-07-30T06:49:32;10.52;;;2.58;;
35444;SDS011;21562;49.476;6.086;2022-07-30T06:51:59;7.90;;;2.60;;
35444;SDS011;21562;49.476;6.086;2022-07-30T06:54:25;5.38;;;2.75;;
35444;SDS011;21562;49.476;6.086;2022-07-30T06:56:50;11.38;;;3.63;;
35444;SDS011;21562;49.476;6.086;2022-07-30T06:59:16;12.00;;;3.95;;
35444;SDS011;21562;49.476;6.086;2022-07-30T07:01:42;8.85;;;3.10;;
35444;SDS011;21562;49.476;6.086;2022-07-30T07:04:07;7.47;;;4.22;;
35444;SDS011;21562;49.476;6.086;2022-07-30T07:06:33;7.85;;;4.10;;
35444;SDS011;21562;49.476;6.086;2022-07-30T07:08:59;15.75;;;5.30;;
35444;SDS011;21562;49.476;6.086;2022-07-30T07:11:25;10.18;;;4.35;;
35444;SDS011;21562;49.476;6.086;2022-07-30T07:13:51;13.52;;;4.93;;
35444;SDS011;21562;49.476;6.086;2022-07-30T07:16:17;15.73;;;3.80;;
35444;SDS011;21562;49.476;6.086;2022-07-30T07:18:46;11.98;;;5.07;;
35444;SDS011;21562;49.476;6.086;2022-07-30T07:21:13;9.23;;;4.40;;
35444;SDS011;21562;49.476;6.086;2022-07-30T07:23:39;11.57;;;4.82;;
35444;SDS011;21562;49.476;6.086;2022-07-30T07:26:04;24.00;;;7.10;;
35444;SDS011;21562;49.476;6.086;2022-07-30T07:28:30;15.02;;;5.88;;
35444;SDS011;21562;49.476;6.086;2022-07-30T07:30:56;11.15;;;5.40;;
35444;SDS011;21562;49.476;6.086;2022-07-30T07:33:21;13.10;;;6.03;;
35444;SDS011;21562;49.476;6.086;2022-07-30T07:35:47;9.43;;;5.63;;
35444;SDS011;21562;49.476;6.086;2022-07-30T07:38:13;8.60;;;4.60;;
35444;SDS011;21562;49.476;6.086;2022-07-30T07:40:38;10.60;;;4.00;;
35444;SDS011;21562;49.476;6.086;2022-07-30T07:43:04;9.90;;;3.85;;
35444;SDS011;21562;49.476;6.086;2022-07-30T07:45:30;8.68;;;3.90;;
35444;SDS011;21562;49.476;6.086;2022-07-30T07:47:55;9.15;;;3.80;;
35444;SDS011;21562;49.476;6.086;2022-07-30T07:50:21;12.05;;;3.75;;
35444;SDS011;21562;49.476;6.086;2022-07-30T07:52:47;6.82;;;3.13;;
35444;SDS011;21562;49.476;6.086;2022-07-30T07:55:13;8.95;;;3.60;;
35444;SDS011;21562;49.476;6.086;2022-07-30T07:57:39;8.85;;;3.78;;
35444;SDS011;21562;49.476;6.086;2022-07-30T08:00:06;4.50;;;3.05;;
35444;SDS011;21562;49.476;6.086;2022-07-30T08:02:33;5.20;;;3.35;;
35444;SDS011;21562;49.476;6.086;2022-07-30T08:04:59;7.72;;;3.35;;
35444;SDS011;21562;49.476;6.086;2022-07-30T08:07:25;7.10;;;3.60;;
35444;SDS011;21562;49.476;6.086;2022-07-30T08:09:51;8.88;;;3.35;;
35444;SDS011;21562;49.476;6.086;2022-07-30T08:12:16;8.40;;;3.05;;
35444;SDS011;21562;49.476;6.086;2022-07-30T08:14:42;7.35;;;3.10;;
35444;SDS011;21562;49.476;6.086;2022-07-30T08:17:08;10.00;;;3.53;;
35444;SDS011;21562;49.476;6.086;2022-07-30T08:19:33;5.78;;;3.40;;
35444;SDS011;21562;49.476;6.086;2022-07-30T08:21:59;9.68;;;3.30;;
35444;SDS011;21562;49.476;6.086;2022-07-30T08:24:25;7.50;;;3.15;;
35444;SDS011;21562;49.476;6.086;2022-07-30T08:26:50;8.15;;;4.00;;
35444;SDS011;21562;49.476;6.086;2022-07-30T08:29:16;14.30;;;5.00;;
35444;SDS011;21562;49.476;6.086;2022-07-30T08:31:42;10.15;;;4.28;;
35444;SDS011;21562;49.476;6.086;2022-07-30T08:34:07;5.20;;;3.20;;
35444;SDS011;21562;49.476;6.086;2022-07-30T08:36:33;8.90;;;3.50;;
35444;SDS011;21562;49.476;6.086;2022-07-30T08:38:59;8.00;;;3.08;;
35444;SDS011;21562;49.476;6.086;2022-07-30T08:41:25;6.95;;;3.72;;
35444;SDS011;21562;49.476;6.086;2022-07-30T08:43:51;7.22;;;3.22;;
35444;SDS011;21562;49.476;6.086;2022-07-30T08:46:18;12.73;;;3.40;;
35444;SDS011;21562;49.476;6.086;2022-07-30T08:48:48;9.55;;;3.67;;
35444;SDS011;21562;49.476;6.086;2022-07-30T08:51:15;10.57;;;3.10;;
35444;SDS011;21562;49.476;6.086;2022-07-30T08:53:43;5.43;;;2.85;;
35444;SDS011;21562;49.476;6.086;2022-07-30T08:56:10;7.68;;;2.80;;
35444;SDS011;21562;49.476;6.086;2022-07-30T08:58:36;8.50;;;3.72;;
35444;SDS011;21562;49.476;6.086;2022-07-30T09:01:02;7.28;;;3.67;;
35444;SDS011;21562;49.476;6.086;2022-07-30T09:03:29;10.90;;;6.82;;
35444;SDS011;21562;49.476;6.086;2022-07-30T09:05:56;6.78;;;4.20;;
35444;SDS011;21562;49.476;6.086;2022-07-30T09:08:22;11.45;;;3.47;;
35444;SDS011;21562;49.476;6.086;2022-07-30T09:10:48;9.85;;;3.25;;
35444;SDS011;21562;49.476;6.086;2022-07-30T09:13:30;5.28;;;2.35;;
35444;SDS011;21562;49.476;6.086;2022-07-30T09:16:00;10.60;;;2.80;;
35444;SDS011;21562;49.476;6.086;2022-07-30T09:20:52;8.43;;;2.90;;
35444;SDS011;21562;49.476;6.086;2022-07-30T09:23:18;6.20;;;2.42;;
35444;SDS011;21562;49.476;6.086;2022-07-30T09:25:45;4.47;;;2.05;;
35444;SDS011;21562;49.476;6.086;2022-07-30T09:28:12;6.03;;;1.65;;
35444;SDS011;21562;49.476;6.086;2022-07-30T09:30:44;5.95;;;1.95;;
35444;SDS011;21562;49.476;6.086;2022-07-30T09:33:10;3.72;;;1.80;;
35444;SDS011;21562;49.476;6.086;2022-07-30T09:35:36;9.32;;;2.10;;
35444;SDS011;21562;49.476;6.086;2022-07-30T09:38:03;4.68;;;2.17;;
35444;SDS011;21562;49.476;6.086;2022-07-30T09:40:30;6.70;;;1.45;;
35444;SDS011;21562;49.476;6.086;2022-07-30T09:45:32;4.43;;;1.50;;
35444;SDS011;21562;49.476;6.086;2022-07-30T09:47:58;5.43;;;1.42;;
35444;SDS011;21562;49.476;6.086;2022-07-30T09:50:24;3.38;;;1.48;;
35444;SDS011;21562;49.476;6.086;2022-07-30T09:52:51;7.25;;;1.85;;
35444;SDS011;21562;49.476;6.086;2022-07-30T09:55:27;8.30;;;1.77;;
35444;SDS011;21562;49.476;6.086;2022-07-30T09:57:59;5.05;;;2.30;;
35444;SDS011;21562;49.476;6.086;2022-07-30T10:00:28;4.78;;;1.80;;
35444;SDS011;21562;49.476;6.086;2022-07-30T10:02:55;2.67;;;1.80;;
35444;SDS011;21562;49.476;6.086;2022-07-30T10:05:21;3.97;;;1.70;;
35444;SDS011;21562;49.476;6.086;2022-07-30T10:10:22;3.90;;;2.30;;
35444;SDS011;21562;49.476;6.086;2022-07-30T10:12:51;5.75;;;1.77;;
35444;SDS011;21562;49.476;6.086;2022-07-30T10:15:31;5.97;;;2.00;;
35444;SDS011;21562;49.476;6.086;2022-07-30T10:17:59;4.30;;;1.20;;
35444;SDS011;21562;49.476;6.086;2022-07-30T10:20:26;4.68;;;1.40;;
35444;SDS011;21562;49.476;6.086;2022-07-30T10:22:52;5.18;;;2.03;;
35444;SDS011;21562;49.476;6.086;2022-07-30T10:25:19;5.50;;;1.73;;
35444;SDS011;21562;49.476;6.086;2022-07-30T10:27:49;4.65;;;1.73;;
35444;SDS011;21562;49.476;6.086;2022-07-30T10:30:15;3.92;;;1.50;;
35444;SDS011;21562;49.476;6.086;2022-07-30T10:32:42;2.03;;;1.45;;
35444;SDS011;21562;49.476;6.086;2022-07-30T10:35:10;1.63;;;0.90;;
35444;SDS011;21562;49.476;6.086;2022-07-30T10:37:37;4.55;;;1.33;;
35444;SDS011;21562;49.476;6.086;2022-07-30T10:47:49;3.55;;;1.50;;
35444;SDS011;21562;49.476;6.086;2022-07-30T10:50:17;2.78;;;1.20;;
35444;SDS011;21562;49.476;6.086;2022-07-30T10:52:49;3.63;;;1.52;;
35444;SDS011;21562;49.476;6.086;2022-07-30T10:55:29;2.90;;;1.30;;
35444;SDS011;21562;49.476;6.086;2022-07-30T11:00:32;5.72;;;2.10;;
35444;SDS011;21562;49.476;6.086;2022-07-30T11:03:24;3.72;;;1.27;;
35444;SDS011;21562;49.476;6.086;2022-07-30T11:06:24;5.97;;;1.43;;
35444;SDS011;21562;49.476;6.086;2022-07-30T11:08:41;3.53;;;1.13;;
35444;SDS011;21562;49.476;6.086;2022-07-30T11:16:14;3.55;;;1.33;;
35444;SDS011;21562;49.476;6.086;2022-07-30T11:21:43;3.40;;;1.00;;
35444;SDS011;21562;49.476;6.086;2022-07-30T11:27:27;2.10;;;1.10;;
35444;SDS011;21562;49.476;6.086;2022-07-30T11:32:47;1.27;;;0.90;;
35444;SDS011;21562;49.476;6.086;2022-07-30T11:38:05;1.60;;;0.80;;
35444;SDS011;21562;49.476;6.086;2022-07-30T11:43:16;1.63;;;1.05;;
35444;SDS011;21562;49.476;6.086;2022-07-30T11:45:48;2.13;;;1.02;;
35444;SDS011;21562;49.476;6.086;2022-07-30T11:48:33;3.13;;;1.17;;
35444;SDS011;21562;49.476;6.086;2022-07-30T11:51:00;2.20;;;0.90;;
35444;SDS011;21562;49.476;6.086;2022-07-30T11:53:26;1.35;;;0.80;;
35444;SDS011;21562;49.476;6.086;2022-07-30T11:55:56;1.98;;;0.88;;
35444;SDS011;21562;49.476;6.086;2022-07-30T11:58:32;1.52;;;0.82;;
35444;SDS011;21562;49.476;6.086;2022-07-30T12:01:00;0.93;;;0.73;;
35444;SDS011;21562;49.476;6.086;2022-07-30T12:03:28;1.73;;;0.75;;
35444;SDS011;21562;49.476;6.086;2022-07-30T12:06:04;0.85;;;0.60;;
35444;SDS011;21562;49.476;6.086;2022-07-30T12:08:40;1.00;;;0.60;;
35444;SDS011;21562;49.476;6.086;2022-07-30T12:11:07;2.38;;;0.70;;
35444;SDS011;21562;49.476;6.086;2022-07-30T12:13:33;4.72;;;0.70;;
35444;SDS011;21562;49.476;6.086;2022-07-30T12:15:58;1.23;;;0.60;;
35444;SDS011;21562;49.476;6.086;2022-07-30T12:18:25;4.28;;;0.82;;
35444;SDS011;21562;49.476;6.086;2022-07-30T12:20:53;1.70;;;0.75;;
35444;SDS011;21562;49.476;6.086;2022-07-30T12:23:27;1.40;;;0.70;;
35444;SDS011;21562;49.476;6.086;2022-07-30T12:25:54;1.83;;;0.70;;
35444;SDS011;21562;49.476;6.086;2022-07-30T12:28:21;0.95;;;0.60;;
35444;SDS011;21562;49.476;6.086;2022-07-30T12:30:48;1.08;;;0.90;;
35444;SDS011;21562;49.476;6.086;2022-07-30T12:33:15;2.15;;;0.95;;
35444;SDS011;21562;49.476;6.086;2022-07-30T12:35:44;2.00;;;0.80;;
35444;SDS011;21562;49.476;6.086;2022-07-30T12:38:13;3.70;;;0.88;;
35444;SDS011;21562;49.476;6.086;2022-07-30T12:40:50;1.35;;;0.70;;
35444;SDS011;21562;49.476;6.086;2022-07-30T12:43:44;2.85;;;0.90;;
35444;SDS011;21562;49.476;6.086;2022-07-30T12:46:20;1.15;;;0.90;;
35444;SDS011;21562;49.476;6.086;2022-07-30T12:51:30;1.45;;;0.88;;
35444;SDS011;21562;49.476;6.086;2022-07-30T12:53:58;2.10;;;0.90;;
35444;SDS011;21562;49.476;6.086;2022-07-30T12:56:26;1.90;;;0.85;;
35444;SDS011;21562;49.476;6.086;2022-07-30T12:58:54;1.55;;;0.43;;
35444;SDS011;21562;49.476;6.086;2022-07-30T13:04:11;1.00;;;0.70;;
35444;SDS011;21562;49.476;6.086;2022-07-30T13:06:37;2.47;;;0.65;;
35444;SDS011;21562;49.476;6.086;2022-07-30T13:09:04;1.30;;;0.50;;
35444;SDS011;21562;49.476;6.086;2022-07-30T13:14:03;0.85;;;0.60;;
35444;SDS011;21562;49.476;6.086;2022-07-30T13:16:32;1.45;;;0.60;;
35444;SDS011;21562;49.476;6.086;2022-07-30T13:18:59;1.20;;;0.60;;
35444;SDS011;21562;49.476;6.086;2022-07-30T13:21:25;1.55;;;0.82;;
35444;SDS011;21562;49.476;6.086;2022-07-30T13:23:51;2.08;;;0.73;;
35444;SDS011;21562;49.476;6.086;2022-07-30T13:26:16;2.45;;;0.47;;
35444;SDS011;21562;49.476;6.086;2022-07-30T13:28:42;3.05;;;0.70;;
35444;SDS011;21562;49.476;6.086;2022-07-30T13:31:10;0.50;;;0.50;;
35444;SDS011;21562;49.476;6.086;2022-07-30T13:33:36;1.00;;;0.68;;
35444;SDS011;21562;49.476;6.086;2022-07-30T13:36:02;1.00;;;0.60;;
35444;SDS011;21562;49.476;6.086;2022-07-30T13:38:28;1.00;;;0.60;;
35444;SDS011;21562;49.476;6.086;2022-07-30T13:40:54;1.00;;;0.50;;
35444;SDS011;21562;49.476;6.086;2022-07-30T13:43:20;0.95;;;0.65;;
35444;SDS011;21562;49.476;6.086;2022-07-30T13:45:46;3.47;;;0.50;;
35444;SDS011;21562;49.476;6.086;2022-07-30T13:48:12;1.90;;;0.75;;
35444;SDS011;21562;49.476;6.086;2022-07-30T13:50:38;1.17;;;0.75;;
35444;SDS011;21562;49.476;6.086;2022-07-30T13:53:05;1.45;;;0.90;;
35444;SDS011;21562;49.476;6.086;2022-07-30T13:55:31;3.85;;;0.70;;
35444;SDS011;21562;49.476;6.086;2022-07-30T13:57:57;2.05;;;0.90;;
35444;SDS011;21562;49.476;6.086;2022-07-30T14:00:22;2.42;;;0.90;;
35444;SDS011;21562;49.476;6.086;2022-07-30T14:02:49;4.75;;;1.38;;
35444;SDS011;21562;49.476;6.086;2022-07-30T14:05:15;2.58;;;0.98;;
35444;SDS011;21562;49.476;6.086;2022-07-30T14:07:40;2.55;;;1.20;;
35444;SDS011;21562;49.476;6.086;2022-07-30T14:10:06;4.78;;;1.02;;
35444;SDS011;21562;49.476;6.086;2022-07-30T14:12:33;1.50;;;0.73;;
35444;SDS011;21562;49.476;6.086;2022-07-30T14:14:59;0.80;;;0.50;;
35444;SDS011;21562;49.476;6.086;2022-07-30T14:17:25;1.42;;;0.80;;
35444;SDS011;21562;49.476;6.086;2022-07-30T14:19:51;1.73;;;0.73;;
35444;SDS011;21562;49.476;6.086;2022-07-30T14:22:19;2.05;;;1.00;;
35444;SDS011;21562;49.476;6.086;2022-07-30T14:24:45;2.20;;;0.75;;
35444;SDS011;21562;49.476;6.086;2022-07-30T14:27:11;0.73;;;0.63;;
35444;SDS011;21562;49.476;6.086;2022-07-30T14:29:37;1.02;;;0.63;;
35444;SDS011;21562;49.476;6.086;2022-07-30T14:32:03;1.27;;;0.82;;
35444;SDS011;21562;49.476;6.086;2022-07-30T14:34:29;1.45;;;0.80;;
35444;SDS011;21562;49.476;6.086;2022-07-30T14:36:54;2.40;;;0.77;;
35444;SDS011;21562;49.476;6.086;2022-07-30T14:39:20;1.13;;;0.55;;
35444;SDS011;21562;49.476;6.086;2022-07-30T14:41:46;2.08;;;0.90;;
35444;SDS011;21562;49.476;6.086;2022-07-30T14:44:11;2.10;;;0.82;;
35444;SDS011;21562;49.476;6.086;2022-07-30T14:46:38;1.02;;;0.70;;
35444;SDS011;21562;49.476;6.086;2022-07-30T14:49:04;1.55;;;0.80;;
35444;SDS011;21562;49.476;6.086;2022-07-30T14:51:30;1.48;;;0.70;;
35444;SDS011;21562;49.476;6.086;2022-07-30T14:53:56;1.15;;;0.50;;
35444;SDS011;21562;49.476;6.086;2022-07-30T14:56:22;1.67;;;1.27;;
35444;SDS011;21562;49.476;6.086;2022-07-30T14:58:49;2.92;;;0.77;;
35444;SDS011;21562;49.476;6.086;2022-07-30T15:01:15;1.77;;;0.93;;
35444;SDS011;21562;49.476;6.086;2022-07-30T15:03:41;1.83;;;1.00;;
35444;SDS011;21562;49.476;6.086;2022-07-30T15:06:06;1.38;;;1.00;;
35444;SDS011;21562;49.476;6.086;2022-07-30T15:08:33;1.13;;;0.70;;
35444;SDS011;21562;49.476;6.086;2022-07-30T15:11:00;0.98;;;0.63;;
35444;SDS011;21562;49.476;6.086;2022-07-30T15:13:25;2.30;;;1.02;;
35444;SDS011;21562;49.476;6.086;2022-07-30T15:15:51;3.60;;;0.80;;
35444;SDS011;21562;49.476;6.086;2022-07-30T15:18:17;2.45;;;1.45;;
35444;SDS011;21562;49.476;6.086;2022-07-30T15:20:42;2.03;;;1.13;;
35444;SDS011;21562;49.476;6.086;2022-07-30T15:23:08;6.95;;;1.52;;
35444;SDS011;21562;49.476;6.086;2022-07-30T15:25:34;3.50;;;1.00;;
35444;SDS011;21562;49.476;6.086;2022-07-30T15:27:59;3.70;;;0.82;;
35444;SDS011;21562;49.476;6.086;2022-07-30T15:30:25;3.05;;;0.80;;
35444;SDS011;21562;49.476;6.086;2022-07-30T15:32:51;4.75;;;0.80;;
35444;SDS011;21562;49.476;6.086;2022-07-30T15:35:18;2.15;;;0.95;;
35444;SDS011;21562;49.476;6.086;2022-07-30T15:37:44;2.15;;;0.82;;
35444;SDS011;21562;49.476;6.086;2022-07-30T15:40:10;1.38;;;0.95;;
35444;SDS011;21562;49.476;6.086;2022-07-30T15:42:35;2.35;;;0.93;;
35444;SDS011;21562;49.476;6.086;2022-07-30T15:45:02;2.58;;;0.70;;
35444;SDS011;21562;49.476;6.086;2022-07-30T15:47:28;3.67;;;1.83;;
35444;SDS011;21562;49.476;6.086;2022-07-30T15:49:54;1.88;;;1.00;;
35444;SDS011;21562;49.476;6.086;2022-07-30T15:52:20;1.92;;;0.90;;
35444;SDS011;21562;49.476;6.086;2022-07-30T15:54:46;5.18;;;1.20;;
35444;SDS011;21562;49.476;6.086;2022-07-30T15:57:11;1.95;;;1.05;;
35444;SDS011;21562;49.476;6.086;2022-07-30T15:59:37;1.10;;;0.90;;
35444;SDS011;21562;49.476;6.086;2022-07-30T16:02:03;2.13;;;1.55;;
35444;SDS011;21562;49.476;6.086;2022-07-30T16:04:29;8.23;;;2.42;;